Time;durP1;ratioP1;P1;durP2;ratioP2;P2;SDS_P1;SDS_P2;PMS_P1;PMS_P2;Temp;Humidity;BMP_temperature;BMP_pressure;BME280_temperature;BME280_humidity;BME280_pressure;Samples;Min_cycle;Max_cycle;Signal;HPM_P1;HPM_P2
2022/02/28 00:01:37;;;;;;;54.30;24.92;;;;;;;-2.80;100.00;101525.50;5117642;28;20356;-79
2022/02/28 00:04:22;;;;;;;54.63;24.75;;;;;;;-2.74;100.00;101525.84;5102601;28;20062;-79
2022/02/28 00:07:07;;;;;;;50.65;23.40;;;;;;;-2.81;100.00;101523.75;5116753;28;20043;-79
2022/02/28 00:09:51;;;;;;;51.90;23.17;;;;;;;-2.82;100.00;101529.69;5102510;28;20108;-79
2022/02/28 00:12:36;;;;;;;55.03;23.27;;;;;;;-2.83;100.00;101521.09;5117398;28;20043;-79
2022/02/28 00:15:21;;;;;;;52.78;22.67;;;;;;;-2.87;100.00;101514.00;5116665;28;20051;-79
2022/02/28 00:18:05;;;;;;;48.95;19.60;;;;;;;-2.85;100.00;101527.81;5117521;28;20375;-79
2022/02/28 00:20:51;;;;;;;49.22;20.60;;;;;;;-2.75;100.00;101524.09;5116609;28;20399;-79
2022/02/28 00:23:35;;;;;;;39.78;19.88;;;;;;;-2.98;100.00;101484.34;5117103;28;20043;-79
2022/02/28 00:26:19;;;;;;;47.80;20.60;;;;;;;-2.72;100.00;101510.56;5116341;28;20047;-79
2022/02/28 00:29:04;;;;;;;50.25;19.05;;;;;;;-2.77;100.00;101506.84;5116267;28;20126;-79
2022/02/28 00:31:49;;;;;;;40.67;18.17;;;;;;;-2.87;100.00;101488.38;5116189;28;20055;-79
2022/02/28 00:34:33;;;;;;;46.65;18.33;;;;;;;-2.79;100.00;101499.06;5102027;28;20063;-79
2022/02/28 00:37:17;;;;;;;47.05;18.35;;;;;;;-2.75;100.00;101500.13;5101979;28;20048;-78
2022/02/28 00:40:02;;;;;;;43.30;18.88;;;;;;;-2.83;100.00;101498.03;5116256;28;20035;-78
2022/02/28 00:42:47;;;;;;;44.38;19.58;;;;;;;-2.79;100.00;101506.78;5116156;28;20035;-78
2022/02/28 00:45:31;;;;;;;41.25;17.63;;;;;;;-2.87;100.00;101490.94;5116085;28;20426;-78
2022/02/28 00:48:16;;;;;;;42.58;19.10;;;;;;;-2.82;100.00;101497.22;5116050;28;20039;-78
2022/02/28 00:51:01;;;;;;;47.72;20.23;;;;;;;-2.81;100.00;101508.34;5116165;28;20067;-78
2022/02/28 00:53:45;;;;;;;36.88;16.83;;;;;;;-2.86;100.00;101502.06;5101737;28;20100;-78
2022/02/28 00:56:30;;;;;;;44.28;17.73;;;;;;;-2.88;100.00;101496.00;5115846;28;20043;-78
2022/02/28 00:59:14;;;;;;;45.13;18.60;;;;;;;-2.88;100.00;101496.00;5116652;28;20036;-78
2022/02/28 01:01:59;;;;;;;42.78;18.58;;;;;;;-2.88;100.00;101491.75;5115473;28;20434;-78
2022/02/28 01:04:44;;;;;;;39.20;18.35;;;;;;;-2.90;100.00;101493.31;5116543;28;20434;-78
2022/02/28 01:07:28;;;;;;;41.75;17.92;;;;;;;-2.88;100.00;101483.16;5116504;28;20326;-78
2022/02/28 01:10:14;;;;;;;39.30;17.58;;;;;;;-2.88;100.00;101481.47;5115991;28;20039;-78
2022/02/28 01:12:59;;;;;;;36.47;16.33;;;;;;;-2.99;100.00;101472.31;5101391;28;20052;-78
2022/02/28 01:15:44;;;;;;;44.05;18.00;;;;;;;-3.00;100.00;101475.66;5101401;28;20044;-78
2022/02/28 01:18:28;;;;;;;36.88;16.88;;;;;;;-2.99;100.00;101479.09;5115606;28;20123;-78
2022/02/28 01:21:13;;;;;;;39.67;15.90;;;;;;;-3.02;100.00;101479.84;5115681;28;20088;-78
2022/02/28 01:23:57;;;;;;;38.95;16.33;;;;;;;-3.06;100.00;101470.19;5115763;28;20059;-78
2022/02/28 01:26:42;;;;;;;36.00;15.57;;;;;;;-3.01;100.00;101476.47;5115465;28;20036;-78
2022/02/28 01:29:27;;;;;;;37.97;15.35;;;;;;;-3.04;100.00;101471.16;5115345;28;20152;-78
2022/02/28 01:32:11;;;;;;;37.30;15.98;;;;;;;-3.02;100.00;101472.16;5101189;28;20096;-78
2022/02/28 01:34:56;;;;;;;36.78;16.30;;;;;;;-3.09;100.00;101478.63;5101352;28;20043;-78
2022/02/28 01:37:42;;;;;;;38.33;16.00;;;;;;;-3.09;100.00;101462.31;5115476;28;20048;-78
2022/02/28 01:40:27;;;;;;;36.03;14.80;;;;;;;-3.03;100.00;101475.50;5116159;28;20043;-78
2022/02/28 01:43:11;;;;;;;37.90;15.32;;;;;;;-3.12;100.00;101474.97;5101186;28;20043;-78
2022/02/28 01:45:56;;;;;;;33.53;16.08;;;;;;;-3.11;100.00;101475.06;5101050;28;20043;-78
2022/02/28 01:48:40;;;;;;;34.50;14.65;;;;;;;-3.14;100.00;101472.34;5115330;28;20434;-79
2022/02/28 01:51:25;;;;;;;33.88;15.75;;;;;;;-3.22;100.00;101471.00;5101046;28;20452;-79
2022/02/28 01:54:10;;;;;;;33.88;14.38;;;;;;;-3.18;100.00;101464.41;5101069;28;20040;-79
2022/02/28 01:56:54;;;;;;;33.75;15.15;;;;;;;-3.22;100.00;101473.56;5115518;28;20040;-79
2022/02/28 01:59:39;;;;;;;35.28;14.95;;;;;;;-3.21;100.00;101470.22;5100943;28;20039;-79
2022/02/28 02:02:24;;;;;;;38.97;16.10;;;;;;;-3.20;100.00;101456.59;5115311;28;20043;-79
2022/02/28 02:05:09;;;;;;;37.38;16.08;;;;;;;-3.22;100.00;101462.44;5115183;28;20093;-79
2022/02/28 02:07:54;;;;;;;37.92;14.68;;;;;;;-3.26;100.00;101455.38;5116005;28;20040;-79
2022/02/28 02:10:39;;;;;;;39.13;15.90;;;;;;;-3.39;100.00;101441.84;5115219;28;20105;-78
2022/02/28 02:13:24;;;;;;;35.30;14.30;;;;;;;-3.25;100.00;101459.69;5103121;28;20045;-78
2022/02/28 02:16:09;;;;;;;34.92;14.48;;;;;;;-3.36;100.00;101459.97;5119005;28;20159;-79
2022/02/28 02:18:54;;;;;;;33.58;15.85;;;;;;;-3.40;100.00;101445.22;5118983;28;20039;-79
2022/02/28 02:21:38;;;;;;;38.80;15.00;;;;;;;-3.27;100.00;101459.63;5118830;28;20040;-78
2022/02/28 02:24:22;;;;;;;33.63;13.73;;;;;;;-3.31;100.00;101452.56;5104550;28;20036;-78
2022/02/28 02:27:07;;;;;;;42.97;15.25;;;;;;;-3.36;100.00;101464.22;5118741;28;20039;-78
2022/02/28 02:29:52;;;;;;;32.90;13.98;;;;;;;-3.47;100.00;101457.59;5118787;28;20083;-79
2022/02/28 02:32:36;;;;;;;32.55;14.25;;;;;;;-3.38;100.00;101459.03;5118668;28;20104;-79
2022/02/28 02:35:21;;;;;;;41.20;17.23;;;;;;;-3.42;100.00;101453.63;5118671;28;20400;-79
2022/02/28 02:38:05;;;;;;;31.75;14.73;;;;;;;-3.46;100.00;101454.25;5118733;28;20047;-79
2022/02/28 02:40:50;;;;;;;35.38;15.35;;;;;;;-3.50;100.00;101463.44;5104080;28;20396;-79
2022/02/28 02:43:36;;;;;;;32.95;14.93;;;;;;;-3.56;100.00;101463.94;5118557;28;20333;-79
2022/02/28 02:46:20;;;;;;;36.95;14.75;;;;;;;-3.50;100.00;101458.31;5104104;28;20104;-79
2022/02/28 02:49:16;;;;;;;32.03;14.65;;;;;;;-3.46;100.00;101457.69;5118401;28;20047;-79
2022/02/28 02:52:01;;;;;;;37.08;16.17;;;;;;;-3.49;100.00;101465.19;5104019;28;20112;-79
2022/02/28 02:54:49;;;;;;;40.17;16.38;;;;;;;-3.48;100.00;101454.13;5104267;28;20040;-79
2022/02/28 02:57:36;;;;;;;32.63;15.07;;;;;;;-3.48;100.00;101459.25;5104025;28;20541;-79
2022/02/28 03:00:20;;;;;;;36.15;16.10;;;;;;;-3.40;100.00;101462.28;5103864;28;20104;-79
2022/02/28 03:03:19;;;;;;;33.38;14.25;;;;;;;-3.49;100.00;101472.00;5105289;28;20050;-79
2022/02/28 03:06:04;;;;;;;33.28;15.23;;;;;;;-3.48;100.00;101466.06;5103843;28;20061;-79
2022/02/28 03:08:53;;;;;;;36.13;15.02;;;;;;;-3.46;100.00;101464.50;5118273;28;20036;-79
2022/02/28 03:11:38;;;;;;;52.90;18.83;;;;;;;-3.56;100.00;101468.19;5117910;28;20039;-79
2022/02/28 03:14:22;;;;;;;33.67;15.60;;;;;;;-3.58;100.00;101469.78;5118635;28;20046;-79
2022/02/28 03:17:08;;;;;;;39.55;15.43;;;;;;;-3.57;100.00;101466.44;5117829;28;20047;-79
2022/02/28 03:19:53;;;;;;;36.70;16.10;;;;;;;-3.61;100.00;101472.16;5103569;28;20046;-79
2022/02/28 03:22:38;;;;;;;32.00;15.05;;;;;;;-3.65;100.00;101475.34;5103473;28;20036;-79
2022/02/28 03:25:24;;;;;;;35.83;16.35;;;;;;;-3.64;100.00;101471.97;5117639;28;20036;-79
2022/02/28 03:28:16;;;;;;;33.70;16.58;;;;;;;-3.61;100.00;101465.34;5117573;28;20044;-79
2022/02/28 03:31:02;;;;;;;35.58;16.83;;;;;;;-3.70;100.00;101452.03;5118274;28;20043;-79
2022/02/28 03:33:48;;;;;;;32.65;16.40;;;;;;;-3.60;100.00;101463.69;5103425;28;20039;-79
2022/02/28 03:36:34;;;;;;;33.05;15.10;;;;;;;-3.52;100.00;101465.00;5103165;28;20040;-79
2022/02/28 03:39:26;;;;;;;33.78;15.55;;;;;;;-3.72;100.00;101468.97;5117333;28;20373;-79
2022/02/28 03:42:13;;;;;;;31.38;15.43;;;;;;;-3.63;100.00;101476.31;5103509;28;20035;-79
2022/02/28 03:44:58;;;;;;;28.60;13.45;;;;;;;-3.64;100.00;101477.09;5117316;28;20048;-79
2022/02/28 03:47:42;;;;;;;34.88;14.40;;;;;;;-3.69;100.00;101481.97;5102930;28;20092;-79
2022/02/28 03:50:42;;;;;;;33.13;14.60;;;;;;;-3.89;100.00;101470.53;5117187;28;20044;-79
2022/02/28 03:53:26;;;;;;;29.10;14.75;;;;;;;-3.93;100.00;101460.94;5102757;28;20043;-79
2022/02/28 03:56:12;;;;;;;27.77;13.35;;;;;;;-3.82;100.00;101476.91;5117066;28;20040;-79
2022/02/28 03:58:56;;;;;;;30.33;13.23;;;;;;;-3.82;100.00;101477.78;5117048;28;20123;-79
2022/02/28 04:01:41;;;;;;;31.55;14.30;;;;;;;-3.88;100.00;101480.00;5102653;28;20040;-79
2022/02/28 04:04:33;;;;;;;33.75;14.73;;;;;;;-3.83;100.00;101481.16;5116962;28;20115;-79
2022/02/28 04:07:18;;;;;;;29.48;15.00;;;;;;;-3.86;100.00;101478.41;5116889;28;20051;-79
2022/02/28 04:10:03;;;;;;;29.67;12.48;;;;;;;-3.68;100.00;101475.16;5102471;28;20123;-79
2022/02/28 04:12:49;;;;;;;31.48;13.75;;;;;;;-3.79;100.00;101483.09;5102540;28;20353;-79
2022/02/28 04:15:33;;;;;;;28.65;15.27;;;;;;;-3.71;100.00;101477.53;5116722;28;20044;-79
2022/02/28 04:18:19;;;;;;;22.92;12.32;;;;;;;-3.74;100.00;101480.78;5102490;28;20040;-79
2022/02/28 04:21:36;;;;;;;29.58;14.10;;;;;;;-3.79;100.00;101480.53;5116473;28;20039;-79
2022/02/28 04:24:21;;;;;;;26.30;13.77;;;;;;;-3.82;100.00;101472.66;5102372;28;20048;-79
2022/02/28 04:27:08;;;;;;;39.00;15.88;;;;;;;-3.97;100.00;101458.94;5101848;28;20098;-79
2022/02/28 04:29:53;;;;;;;34.40;14.43;;;;;;;-3.90;100.00;101467.88;5116457;28;20047;-79
2022/02/28 04:32:39;;;;;;;31.52;15.35;;;;;;;-3.91;100.00;101476.38;5116285;28;20044;-79
2022/02/28 04:35:25;;;;;;;29.63;13.95;;;;;;;-3.88;100.00;101474.00;5101603;28;20043;-79
2022/02/28 04:38:20;;;;;;;35.00;14.80;;;;;;;-3.96;100.00;101453.06;5102991;28;20149;-79
2022/02/28 04:41:05;;;;;;;32.28;15.45;;;;;;;-4.05;100.00;101444.84;5087638;28;20062;-79
2022/02/28 04:43:50;;;;;;;30.95;14.25;;;;;;;-3.91;100.00;101473.81;5087440;28;20139;-79
2022/02/28 04:46:34;;;;;;;30.60;14.93;;;;;;;-3.91;100.00;101455.88;5115917;28;20044;-79
2022/02/28 04:49:35;;;;;;;35.70;15.27;;;;;;;-3.93;100.00;101463.50;5116039;28;20044;-79
2022/02/28 04:52:21;;;;;;;30.25;13.95;;;;;;;-3.93;100.00;101473.72;5101950;28;20039;-79
2022/02/28 04:55:06;;;;;;;28.60;14.10;;;;;;;-4.01;100.00;101463.00;5101619;28;20054;-79
2022/02/28 04:57:51;;;;;;;28.38;12.52;;;;;;;-3.99;100.00;101458.00;5101745;28;20126;-79
2022/02/28 05:00:54;;;;;;;28.30;13.95;;;;;;;-4.08;100.00;101462.56;5116732;28;20044;-79
2022/02/28 05:03:39;;;;;;;32.38;14.60;;;;;;;-4.08;100.00;101460.88;5101581;28;20096;-79
2022/02/28 05:06:24;;;;;;;33.08;13.68;;;;;;;-4.08;100.00;101462.56;5101666;28;20043;-79
2022/02/28 05:09:11;;;;;;;33.03;12.68;;;;;;;-4.19;100.00;101449.13;5101535;28;20055;-79
2022/02/28 05:11:56;;;;;;;31.65;13.65;;;;;;;-4.06;100.00;101463.56;5115991;28;20048;-79
2022/02/28 05:14:40;;;;;;;31.67;13.38;;;;;;;-4.16;100.00;101467.22;5115692;28;20040;-79
2022/02/28 05:17:25;;;;;;;27.42;13.20;;;;;;;-4.13;100.00;101476.75;5115751;28;20441;-79
2022/02/28 05:20:10;;;;;;;33.72;14.18;;;;;;;-4.10;100.00;101474.38;5115754;28;20089;-79
2022/02/28 05:22:56;;;;;;;36.40;15.00;;;;;;;-4.13;100.00;101475.06;5087039;28;20353;-79
2022/02/28 05:25:41;;;;;;;32.80;13.85;;;;;;;-4.13;100.00;101471.63;5115513;28;20039;-79
2022/02/28 05:28:26;;;;;;;28.42;11.98;;;;;;;-4.13;100.00;101469.06;5115478;28;20035;-79
2022/02/28 05:31:11;;;;;;;26.73;12.73;;;;;;;-4.03;100.00;101481.63;5115298;28;20046;-79
2022/02/28 05:33:55;;;;;;;31.17;12.20;;;;;;;-4.05;100.00;101483.22;5100188;28;20127;-79
2022/02/28 05:36:41;;;;;;;26.30;12.52;;;;;;;-4.18;100.00;101486.72;5099572;28;20422;-79
2022/02/28 05:39:51;;;;;;;31.73;14.02;;;;;;;-4.03;100.00;101484.19;5114233;28;20044;-79
2022/02/28 05:42:40;;;;;;;27.65;14.00;;;;;;;-4.14;100.00;101491.22;5100584;28;20322;-79
2022/02/28 05:45:25;;;;;;;30.85;12.18;;;;;;;-4.12;100.00;101492.22;5099247;28;20055;-79
2022/02/28 05:48:19;;;;;;;27.17;12.40;;;;;;;-3.95;100.00;101500.03;5118865;28;20039;-79
2022/02/28 05:51:04;;;;;;;31.63;13.77;;;;;;;-3.97;100.00;101506.72;5104632;28;20047;-77
2022/02/28 05:53:49;;;;;;;27.50;13.30;;;;;;;-4.03;100.00;101507.22;5118507;28;20043;-81
2022/02/28 05:56:34;;;;;;;25.83;14.25;;;;;;;-4.08;100.00;101506.97;5101841;28;20115;-81
2022/02/28 05:59:19;;;;;;;26.50;12.38;;;;;;;-4.01;100.00;101509.09;5102816;28;20044;-81
2022/02/28 06:02:03;;;;;;;28.55;13.93;;;;;;;-3.99;100.00;101504.06;5119552;28;20040;-81
2022/02/28 06:04:48;;;;;;;29.02;12.95;;;;;;;-3.98;100.00;101510.06;5104985;28;20058;-81
2022/02/28 06:07:32;;;;;;;32.40;16.25;;;;;;;-3.93;100.00;101508.66;5090292;28;20108;-81
2022/02/28 06:10:17;;;;;;;50.47;21.58;;;;;;;-3.93;100.00;101512.13;5118897;28;20055;-81
2022/02/28 06:13:01;;;;;;;37.33;15.30;;;;;;;-3.96;100.00;101508.47;5103867;28;20063;-81
2022/02/28 06:15:46;;;;;;;32.33;15.02;;;;;;;-3.92;100.00;101507.88;5119693;28;20098;-81
2022/02/28 06:18:30;;;;;;;30.65;13.15;;;;;;;-3.78;100.00;101515.59;5120109;28;20047;-81
2022/02/28 06:21:15;;;;;;;31.50;13.25;;;;;;;-3.70;100.00;101526.31;5119130;28;20043;-81
2022/02/28 06:23:59;;;;;;;29.95;12.38;;;;;;;-3.57;100.00;101518.56;5119635;28;20093;-81
2022/02/28 06:26:44;;;;;;;25.40;12.98;;;;;;;-3.45;100.00;101514.94;5118969;28;20051;-81
2022/02/28 06:29:28;;;;;;;38.08;16.60;;;;;;;-2.87;100.00;101519.16;5118761;28;20055;-81
2022/02/28 06:32:12;;;;;;;27.83;13.50;;;;;;;-2.60;100.00;101530.09;5105118;28;20043;-81
2022/02/28 06:34:56;;;;;;;22.95;12.18;;;;;;;-2.22;100.00;101525.25;5104821;28;20047;-81
2022/02/28 06:37:41;;;;;;;30.50;12.93;;;;;;;-1.91;100.00;101527.78;5118848;28;20039;-80
2022/02/28 06:40:25;;;;;;;25.25;12.45;;;;;;;-1.64;100.00;101530.88;5118775;28;20370;-81
2022/02/28 06:43:10;;;;;;;25.83;11.35;;;;;;;-1.23;100.00;101543.28;5118733;28;20039;-80
2022/02/28 06:45:55;;;;;;;22.10;10.48;;;;;;;-1.08;100.00;101544.84;5118610;28;20044;-81
2022/02/28 06:48:40;;;;;;;19.73;10.25;;;;;;;-0.81;100.00;101538.47;5120787;28;20040;-80
2022/02/28 06:51:24;;;;;;;23.90;9.57;;;;;;;-0.40;100.00;101534.41;5118593;28;20488;-80
2022/02/28 06:54:09;;;;;;;24.10;10.55;;;;;;;-0.45;100.00;101535.91;5118531;28;20043;-80
2022/02/28 06:56:53;;;;;;;19.15;10.05;;;;;;;-0.86;100.00;101537.38;5104478;28;20063;-79
2022/02/28 06:59:37;;;;;;;20.10;10.77;;;;;;;-0.52;100.00;101546.69;5103631;28;20043;-79
2022/02/28 07:02:21;;;;;;;19.20;8.85;;;;;;;-0.26;100.00;101541.09;5118810;28;20040;-80
2022/02/28 07:05:17;;;;;;;23.50;10.43;;;;;;;-0.02;100.00;101545.59;5105405;28;20050;-80
2022/02/28 07:08:02;;;;;;;20.08;10.98;;;;;;;0.17;100.00;101553.34;5118812;28;20451;-79
2022/02/28 07:10:47;;;;;;;22.50;10.98;;;;;;;0.33;100.00;101564.34;5103864;28;20073;-79
2022/02/28 07:13:32;;;;;;;20.30;9.98;;;;;;;0.00;100.00;101543.97;5104351;28;20039;-79
2022/02/28 07:16:17;;;;;;;21.48;10.80;;;;;;;-0.26;100.00;101548.81;5118937;28;20102;-79
2022/02/28 07:19:03;;;;;;;20.08;11.55;;;;;;;-0.32;100.00;101563.97;5118620;28;20047;-79
2022/02/28 07:21:48;;;;;;;25.23;10.68;;;;;;;-0.10;100.00;101559.81;5117979;28;20169;-78
2022/02/28 07:24:33;;;;;;;24.52;10.70;;;;;;;0.26;100.00;101551.97;5103178;28;20052;-78
2022/02/28 07:27:18;;;;;;;22.73;11.95;;;;;;;0.56;100.00;101570.50;5117449;28;20032;-78
2022/02/28 07:30:03;;;;;;;21.33;10.40;;;;;;;0.35;100.00;101578.16;5116465;28;20366;-77
2022/02/28 07:32:48;;;;;;;22.35;11.68;;;;;;;0.48;100.00;101570.16;5109253;28;20093;-78
2022/02/28 07:35:33;;;;;;;19.10;11.00;;;;;;;0.65;100.00;101569.19;5114779;28;20071;-78
2022/02/28 07:38:17;;;;;;;18.52;9.68;;;;;;;0.64;100.00;101576.84;5116102;28;20039;-78
2022/02/28 07:41:01;;;;;;;23.85;11.70;;;;;;;1.04;100.00;101574.28;5117075;28;20437;-78
2022/02/28 07:43:46;;;;;;;27.00;10.75;;;;;;;0.82;100.00;101580.22;5117035;28;20039;-75
2022/02/28 07:46:30;;;;;;;20.55;9.93;;;;;;;1.34;100.00;101584.97;5116896;28;20039;-76
2022/02/28 07:49:14;;;;;;;21.77;10.35;;;;;;;1.36;100.00;101577.28;5116587;28;20044;-75
2022/02/28 07:51:59;;;;;;;21.17;11.80;;;;;;;1.30;100.00;101590.84;5116531;28;20494;-76
2022/02/28 07:54:43;;;;;;;40.03;24.45;;;;;;;0.97;100.00;101571.38;5117303;28;20039;-76
2022/02/28 07:57:27;;;;;;;54.38;41.75;;;;;;;0.95;100.00;101583.34;5118535;28;20062;-77
2022/02/28 08:00:13;;;;;;;20.67;11.70;;;;;;;1.14;100.00;101586.75;5117910;28;20044;-77
2022/02/28 08:02:57;;;;;;;21.15;9.55;;;;;;;1.82;100.00;101585.16;5117736;28;20115;-76
2022/02/28 08:05:42;;;;;;;21.08;12.23;;;;;;;1.63;100.00;101583.56;5102128;28;20070;-77
2022/02/28 08:08:26;;;;;;;43.00;29.10;;;;;;;1.38;100.00;101586.84;5115545;28;20044;-77
2022/02/28 08:11:11;;;;;;;51.17;22.25;;;;;;;1.62;100.00;101584.34;5115869;28;20445;-77
2022/02/28 08:13:56;;;;;;;151.57;46.03;;;;;;;1.17;100.00;101592.03;5116910;28;20044;-77
2022/02/28 08:16:40;;;;;;;28.52;15.95;;;;;;;1.43;100.00;101565.50;5116882;28;20383;-77
2022/02/28 08:19:24;;;;;;;23.30;12.82;;;;;;;2.29;100.00;101587.75;5117181;28;20059;-77
2022/02/28 08:22:09;;;;;;;34.22;14.80;;;;;;;2.01;100.00;101578.97;5116975;28;20417;-78
2022/02/28 08:24:54;;;;;;;53.35;18.23;;;;;;;2.48;100.00;101582.44;5117242;28;20056;-77
2022/02/28 08:27:39;;;;;;;99.65;28.85;;;;;;;3.05;100.00;101592.16;5116574;28;20040;-77
2022/02/28 08:30:23;;;;;;;73.45;55.95;;;;;;;1.96;100.00;101593.44;5102116;28;20073;-77
2022/02/28 08:33:08;;;;;;;23.25;11.07;;;;;;;1.96;100.00;101600.31;5116588;28;20040;-77
2022/02/28 08:35:53;;;;;;;89.95;33.10;;;;;;;1.91;100.00;101607.00;5116509;28;20043;-78
2022/02/28 08:38:38;;;;;;;49.75;18.60;;;;;;;2.81;100.00;101603.44;5102438;28;20046;-78
2022/02/28 08:41:22;;;;;;;145.88;43.40;;;;;;;2.17;100.00;101600.22;5102098;28;20044;-78
2022/02/28 08:44:08;;;;;;;195.57;103.90;;;;;;;2.32;100.00;101608.56;5116628;28;20047;-79
2022/02/28 08:46:52;;;;;;;39.47;20.60;;;;;;;2.78;100.00;101607.63;5116867;28;20403;-79
2022/02/28 08:49:37;;;;;;;62.92;23.02;;;;;;;2.11;100.00;101587.94;5116389;28;20031;-79
2022/02/28 08:52:21;;;;;;;31.75;13.25;;;;;;;2.48;100.00;101612.59;5102388;28;20430;-79
2022/02/28 08:55:06;;;;;;;106.60;29.80;;;;;;;1.67;100.00;101605.22;5102498;28;20051;-79
2022/02/28 08:57:50;;;;;;;47.17;15.73;;;;;;;2.23;100.00;101613.38;5101810;28;20054;-79
2022/02/28 09:00:35;;;;;;;561.65;305.83;;;;;;;2.52;100.00;101611.88;5102442;28;20323;-79
2022/02/28 09:03:20;;;;;;;140.50;77.32;;;;;;;2.67;100.00;101616.72;5116346;28;20426;-79
2022/02/28 09:06:04;;;;;;;41.25;17.50;;;;;;;2.78;100.00;101616.28;5116473;28;20104;-79
2022/02/28 09:08:49;;;;;;;100.55;31.00;;;;;;;1.70;100.00;101625.13;5117040;28;20461;-79
2022/02/28 09:11:33;;;;;;;69.00;23.33;;;;;;;2.20;100.00;101623.63;5115984;28;20122;-79
2022/02/28 09:14:17;;;;;;;37.25;14.73;;;;;;;2.21;100.00;101627.94;5116484;28;20096;-79
2022/02/28 09:17:03;;;;;;;76.15;22.50;;;;;;;2.46;100.00;101627.16;5116310;28;20039;-80
2022/02/28 09:19:47;;;;;;;107.57;32.95;;;;;;;2.50;100.00;101623.88;5101508;28;20032;-79
2022/02/28 09:22:32;;;;;;;31.58;16.88;;;;;;;2.56;100.00;101626.69;5116060;28;20044;-79
2022/02/28 09:25:17;;;;;;;89.38;37.28;;;;;;;2.85;100.00;101627.72;5087739;28;20059;-79
2022/02/28 09:28:02;;;;;;;70.88;26.63;;;;;;;2.86;100.00;101629.50;5101732;28;20039;-76
2022/02/28 09:30:47;;;;;;;47.88;16.83;;;;;;;3.16;100.00;101629.66;5116629;28;20048;-75
2022/02/28 09:33:31;;;;;;;78.22;27.05;;;;;;;2.62;100.00;101632.06;5101901;28;20379;-76
2022/02/28 09:36:16;;;;;;;577.10;250.82;;;;;;;2.91;100.00;101624.47;5116145;28;20047;-76
2022/02/28 09:39:00;;;;;;;127.65;42.83;;;;;;;2.89;100.00;101633.88;5116381;28;20067;-76
2022/02/28 09:41:53;;;;;;;54.83;16.83;;;;;;;3.14;100.00;101644.25;5116156;28;20051;-79
2022/02/28 09:45:05;;;;;;;16.17;7.40;;;;;;;3.27;100.00;101627.44;5105979;28;20058;-79
2022/02/28 09:47:56;;;;;;;13.38;6.72;;;;;;;3.30;100.00;101639.59;5115619;28;20051;-80
2022/02/28 09:51:01;;;;;;;36.92;11.35;;;;;;;3.69;100.00;101619.28;5100718;28;20434;-79
2022/02/28 09:53:54;;;;;;;;;;;;;;;3.43;100.00;101632.28;5116603;28;20451;-79
2022/02/28 09:56:50;;;;;;;112.40;25.75;;;;;;;3.28;98.29;101632.69;5102628;28;19942;-79
2022/02/28 09:59:58;;;;;;;63.33;17.27;;;;;;;3.68;92.46;101631.38;5104351;28;20040;-79
2022/02/28 10:02:43;;;;;;;36.38;10.73;;;;;;;4.02;85.24;101624.63;5101159;28;20035;-79
2022/02/28 10:05:29;;;;;;;181.07;36.80;;;;;;;3.63;83.56;101619.09;5115333;28;20062;-79
2022/02/28 10:08:14;;;;;;;60.15;13.90;;;;;;;3.76;82.97;101618.66;5116121;28;20418;-80
2022/02/28 10:10:58;;;;;;;669.20;263.13;;;;;;;3.84;80.63;101622.38;5115353;28;20043;-79
2022/02/28 10:13:43;;;;;;;187.18;61.38;;;;;;;3.63;80.48;101619.09;5101584;28;20044;-80
2022/02/28 10:16:40;;;;;;;56.70;17.83;;;;;;;3.94;81.25;101627.00;5115873;28;20043;-79
2022/02/28 10:19:29;;;;;;;29.13;9.50;;;;;;;4.14;77.38;101619.84;5115579;28;20059;-80
2022/02/28 10:22:13;;;;;;;51.63;14.20;;;;;;;3.58;75.69;101626.75;5115544;28;20040;-80
2022/02/28 10:24:57;;;;;;;37.95;11.30;;;;;;;3.70;74.01;101624.50;5116497;28;20046;-79
2022/02/28 10:28:11;;;;;;;55.90;15.40;;;;;;;3.73;75.52;101619.44;5115935;28;20035;-77
2022/02/28 10:31:14;;;;;;;;;;;;;;;3.94;74.05;101624.41;5116664;28;20296;-79
2022/02/28 10:34:25;;;;;;;45.73;13.90;;;;;;;3.34;72.60;101612.97;5118093;28;19942;-79
2022/02/28 10:37:29;;;;;;;19.58;8.15;;;;;;;3.42;69.87;101634.84;5118044;28;20308;-78
2022/02/28 10:40:13;;;;;;;27.83;8.75;;;;;;;3.37;69.34;101634.69;5119021;28;20039;-79
2022/02/28 10:42:58;;;;;;;12.25;5.13;;;;;;;3.69;71.75;101630.53;5119060;28;20039;-79
2022/02/28 10:45:43;;;;;;;15.70;6.30;;;;;;;3.64;68.40;101631.22;5118320;28;20063;-80
2022/02/28 10:48:28;;;;;;;31.73;7.53;;;;;;;2.92;65.93;101634.00;5116723;28;20046;-79
2022/02/28 10:51:15;;;;;;;12.85;4.88;;;;;;;3.48;68.49;101640.22;5102361;28;20052;-79
2022/02/28 10:54:11;;;;;;;22.05;7.50;;;;;;;3.81;67.01;101624.88;5117328;28;20040;-78
2022/02/28 10:56:58;;;;;;;39.05;10.10;;;;;;;3.09;65.61;101637.16;5117297;28;20422;-78
2022/02/28 10:59:55;;;;;;;20.95;6.43;;;;;;;3.65;65.93;101633.88;5116475;28;20341;-79
2022/02/28 11:02:40;;;;;;;14.93;5.22;;;;;;;3.83;65.70;101627.50;5116642;28;20141;-78
2022/02/28 11:05:26;;;;;;;39.88;10.35;;;;;;;4.03;65.65;101623.84;5103199;28;20043;-78
2022/02/28 11:08:18;;;;;;;48.97;12.10;;;;;;;3.86;65.63;101631.06;5118995;28;20044;-78
2022/02/28 11:11:14;;;;;;;120.43;28.25;;;;;;;3.42;65.89;101642.63;5118936;28;20051;-78
2022/02/28 11:13:58;;;;;;;627.10;198.73;;;;;;;3.48;65.46;101640.22;5118210;28;20046;-77
2022/02/28 11:16:43;;;;;;;19.52;8.23;;;;;;;3.42;65.64;101643.50;5118280;28;20065;-78
2022/02/28 11:19:27;;;;;;;54.00;19.23;;;;;;;3.34;68.69;101644.94;5118864;28;20039;-78
2022/02/28 11:22:12;;;;;;;141.32;46.75;;;;;;;3.57;67.04;101645.69;5117547;28;20036;-78
2022/02/28 11:24:57;;;;;;;69.97;26.42;;;;;;;3.58;65.18;101642.28;5118448;28;20042;-78
2022/02/28 11:27:43;;;;;;;63.65;22.80;;;;;;;3.52;64.66;101634.31;5118344;28;20043;-78
2022/02/28 11:30:29;;;;;;;104.07;34.50;;;;;;;3.47;64.33;101626.38;5117139;28;20048;-78
2022/02/28 11:33:16;;;;;;;109.10;36.08;;;;;;;3.34;65.55;101625.91;5117372;28;20036;-78
2022/02/28 11:36:00;;;;;;;37.88;12.05;;;;;;;3.56;62.65;101633.56;5117987;28;20063;-78
2022/02/28 11:38:45;;;;;;;52.67;18.42;;;;;;;3.41;62.85;101628.78;5103173;28;20040;-77
2022/02/28 11:41:30;;;;;;;102.32;29.00;;;;;;;3.92;64.86;101623.47;5117107;28;20119;-77
2022/02/28 11:44:16;;;;;;;34.95;10.77;;;;;;;4.13;61.77;101622.41;5102971;28;20041;-78
2022/02/28 11:47:07;;;;;;;19.63;6.40;;;;;;;4.24;60.21;101623.56;5103367;28;20048;-78
2022/02/28 11:49:51;;;;;;;7.70;3.35;;;;;;;4.30;61.91;101608.19;5117414;28;20051;-78
2022/02/28 11:52:37;;;;;;;9.13;3.30;;;;;;;4.85;59.75;101622.72;5118616;28;20130;-78
2022/02/28 11:55:29;;;;;;;10.95;4.10;;;;;;;4.65;58.12;101622.19;5117399;28;20357;-79
2022/02/28 11:58:15;;;;;;;5.07;2.90;;;;;;;4.72;54.45;101625.81;5118529;28;20402;-79
2022/02/28 12:01:11;;;;;;;4.68;2.65;;;;;;;4.28;57.20;101627.13;5118455;28;20046;-79
2022/02/28 12:04:07;;;;;;;5.72;2.85;;;;;;;4.54;56.21;101628.75;5117332;28;20103;-78
2022/02/28 12:07:07;;;;;;;12.43;5.97;;;;;;;4.33;57.17;101620.38;5102837;28;20418;-78
2022/02/28 12:10:04;;;;;;;22.30;8.25;;;;;;;3.50;56.66;101631.66;5117550;28;20061;-78
2022/02/28 12:12:57;;;;;;;4.45;2.53;;;;;;;3.60;55.63;101619.88;5102690;28;20047;-78
2022/02/28 12:15:41;;;;;;;5.93;2.92;;;;;;;3.37;56.76;101620.84;5117919;28;20054;-78
2022/02/28 12:18:26;;;;;;;10.27;5.30;;;;;;;3.55;56.63;101633.53;5116827;28;20050;-78
2022/02/28 12:21:10;;;;;;;6.55;2.80;;;;;;;3.51;57.71;101630.84;5118130;28;20418;-78
2022/02/28 12:23:56;;;;;;;17.88;7.70;;;;;;;3.81;57.26;101611.91;5102732;28;20442;-78
2022/02/28 12:27:10;;;;;;;8.48;3.17;;;;;;;3.90;56.31;101643.31;5117251;28;20046;-78
2022/02/28 12:29:54;;;;;;;;;;;;;;;4.46;57.04;101638.06;5116943;28;20353;-78
2022/02/28 12:32:49;;;;;;;44.60;17.05;;;;;;;4.57;55.51;101621.06;5117308;28;19920;-78
2022/02/28 12:35:58;;;;;;;7.00;2.47;;;;;;;4.35;51.32;101642.91;5117288;28;20349;-78